Terminal Aerodrome Forecast
Issued by NWS

Home | Current Version | Previous Version | Graphics & Text | Print | Product List | Glossary Off
Versions: 1 2 3 4 5 6 7 8 9 10 11 12 13 14 15 16

986
FTUS43 KMPX 270520
TAFAXN
TAF
KAXN 270520Z 2706/2806 17005KT P6SM BKN150
     FM271100 15006KT P6SM VCSH SCT040 OVC080
     FM271500 16010KT P6SM BKN050 PROB30 2721/2724 TSRA OVC040CB=

USA.gov is the U.S. government's official web portal to all federal, state and local government web resources and services.